Time;durP1;ratioP1;P1;durP2;ratioP2;P2;SDS_P1;SDS_P2;PMS_P1;PMS_P2;Temp;Humidity;BMP_temperature;BMP_pressure;BME280_temperature;BME280_humidity;BME280_pressure;Samples;Min_cycle;Max_cycle;Signal;HPM_P1;HPM_P2
2021/05/25 00:00:36;;;;;;;16.48;4.90;;;;;;;6.86;100.00;100760.53;5107565;28;20021;-64
2021/05/25 00:03:06;;;;;;;18.65;4.88;;;;;;;6.82;100.00;100759.59;5105895;28;20023;-64
2021/05/25 00:05:31;;;;;;;17.55;5.00;;;;;;;6.73;100.00;100759.44;5106697;28;20036;-64
2021/05/25 00:07:58;;;;;;;18.58;4.97;;;;;;;6.76;100.00;100764.75;5106819;28;20019;-64
2021/05/25 00:10:25;;;;;;;18.42;5.03;;;;;;;6.72;100.00;100762.91;5105671;28;20024;-65
2021/05/25 00:12:51;;;;;;;18.15;5.00;;;;;;;6.67;100.00;100764.56;5107356;28;20024;-65
2021/05/25 00:15:21;;;;;;;17.92;5.38;;;;;;;6.64;100.00;100762.78;5102995;28;20035;-64
2021/05/25 00:17:50;;;;;;;17.55;5.32;;;;;;;6.61;100.00;100770.56;5107751;28;20027;-64
2021/05/25 00:20:17;;;;;;;17.63;5.05;;;;;;;6.52;100.00;100760.78;5104179;28;20351;-65
2021/05/25 00:22:42;;;;;;;18.00;5.32;;;;;;;6.50;100.00;100766.88;5099052;28;20229;-64
2021/05/25 00:25:10;;;;;;;18.55;5.50;;;;;;;6.45;100.00;100766.75;5107109;28;20118;-64
2021/05/25 00:27:35;;;;;;;18.60;5.50;;;;;;;6.38;100.00;100764.91;5104819;28;20551;-65
2021/05/25 00:30:01;;;;;;;19.77;5.60;;;;;;;6.35;100.00;100760.47;5104801;28;20058;-65
2021/05/25 00:32:26;;;;;;;18.58;5.55;;;;;;;6.33;100.00;100761.28;5105886;28;20038;-71
2021/05/25 00:34:52;;;;;;;19.52;5.60;;;;;;;6.31;100.00;100760.38;5104913;28;20028;-67
2021/05/25 00:37:17;;;;;;;18.58;5.50;;;;;;;6.25;100.00;100771.63;5106113;28;20015;-73
2021/05/25 00:39:43;;;;;;;18.52;5.78;;;;;;;6.27;100.00;100770.78;5103217;28;20028;-67
2021/05/25 00:42:11;;;;;;;19.45;5.95;;;;;;;6.21;100.00;100764.53;5106890;28;20149;-71
2021/05/25 00:44:37;;;;;;;18.63;5.60;;;;;;;6.23;100.00;100765.44;5104860;28;20441;-65
2021/05/25 00:47:02;;;;;;;19.90;6.25;;;;;;;6.18;100.00;100767.09;5105945;28;20107;-69
2021/05/25 00:49:28;;;;;;;20.27;6.03;;;;;;;6.13;100.00;100772.25;5105594;28;20027;-75
2021/05/25 00:51:53;;;;;;;19.80;6.28;;;;;;;6.10;100.00;100769.53;5104123;28;20493;-74
2021/05/25 00:54:19;;;;;;;21.27;6.43;;;;;;;6.15;100.00;100770.53;5106939;28;20147;-68
2021/05/25 00:56:44;;;;;;;21.10;6.38;;;;;;;6.01;100.00;100771.97;5103688;28;20366;-67
2021/05/25 00:59:13;;;;;;;20.80;6.55;;;;;;;5.97;100.00;100767.47;5102877;28;20471;-75
2021/05/25 01:01:38;;;;;;;20.15;6.43;;;;;;;6.02;100.00;100764.13;5106658;28;20016;-66
2021/05/25 01:04:04;;;;;;;22.15;6.88;;;;;;;5.99;100.00;100776.31;5104276;28;20467;-76
2021/05/25 01:06:30;;;;;;;20.60;6.20;;;;;;;5.88;100.00;100774.31;5105087;28;20024;-66
2021/05/25 01:08:59;;;;;;;21.30;6.40;;;;;;;5.86;100.00;100778.63;5105924;28;20034;-70
2021/05/25 01:11:28;;;;;;;20.65;6.30;;;;;;;5.85;100.00;100776.84;5104253;28;20024;-66
2021/05/25 01:13:56;;;;;;;21.58;6.25;;;;;;;5.82;100.00;100774.16;5105582;28;20126;-66
2021/05/25 01:16:25;;;;;;;21.95;6.57;;;;;;;5.77;100.00;100767.94;5103825;28;20039;-65
2021/05/25 01:18:51;;;;;;;18.90;5.78;;;;;;;5.75;100.00;100777.50;5106218;28;20019;-65
2021/05/25 01:21:16;;;;;;;19.92;6.45;;;;;;;5.76;100.00;100774.91;5103040;28;20442;-65
2021/05/25 01:23:42;;;;;;;20.23;6.00;;;;;;;5.73;100.00;100776.56;5106459;28;20077;-64
2021/05/25 01:26:08;;;;;;;22.23;6.80;;;;;;;5.67;100.00;100776.44;5103764;28;20063;-64
2021/05/25 01:28:36;;;;;;;19.90;6.05;;;;;;;5.61;100.00;100776.28;5105167;28;20107;-65
2021/05/25 01:31:06;;;;;;;22.10;6.20;;;;;;;5.56;100.00;100782.31;5104491;28;20073;-65
2021/05/25 01:33:33;;;;;;;20.92;6.22;;;;;;;5.61;100.00;100792.00;5105055;28;20032;-65
2021/05/25 01:35:59;;;;;;;19.83;5.85;;;;;;;5.61;100.00;100773.66;5104794;28;20023;-64
2021/05/25 01:38:27;;;;;;;20.70;6.03;;;;;;;5.57;100.00;100776.22;5103869;28;20045;-64
2021/05/25 01:40:55;;;;;;;20.65;5.60;;;;;;;5.58;100.00;100785.84;5105685;28;20039;-64
2021/05/25 01:43:21;;;;;;;19.67;6.05;;;;;;;5.62;100.00;100780.69;5103126;28;20020;-64
2021/05/25 01:45:47;;;;;;;20.90;6.10;;;;;;;5.69;100.00;100778.22;5106175;28;20024;-64
2021/05/25 01:48:12;;;;;;;19.85;5.90;;;;;;;5.72;100.00;100783.56;5098004;28;20027;-64
2021/05/25 01:50:41;;;;;;;20.88;6.10;;;;;;;5.72;100.00;100785.28;5105654;28;20030;-64
2021/05/25 01:53:19;;;;;;;20.17;6.13;;;;;;;5.74;100.00;100794.09;5102820;28;20036;-64
2021/05/25 01:55:51;;;;;;;19.92;5.82;;;;;;;5.72;100.00;100783.56;5099156;28;20535;-64
2021/05/25 01:58:20;;;;;;;20.45;5.88;;;;;;;5.76;100.00;100792.38;5098749;28;20481;-65
2021/05/25 02:00:49;;;;;;;19.27;5.90;;;;;;;5.82;100.00;100800.38;5097325;28;20111;-64
2021/05/25 02:03:15;;;;;;;20.55;5.95;;;;;;;5.83;100.00;100788.19;5105783;28;20027;-64
2021/05/25 02:05:40;;;;;;;19.40;5.70;;;;;;;5.86;100.00;100789.13;5102820;28;20024;-64
2021/05/25 02:08:08;;;;;;;19.50;5.63;;;;;;;5.93;100.00;100800.66;5104810;28;20372;-64
2021/05/25 02:10:47;;;;;;;19.55;5.97;;;;;;;5.93;100.00;100796.28;5103479;28;20444;-65
2021/05/25 02:13:25;;;;;;;19.75;5.68;;;;;;;5.97;100.00;100788.47;5097919;28;20118;-65
2021/05/25 02:15:55;;;;;;;19.85;5.55;;;;;;;5.92;100.00;100791.88;5099903;28;20089;-65
2021/05/25 02:18:23;;;;;;;19.20;5.57;;;;;;;5.92;100.00;100788.38;5105073;28;20077;-73
2021/05/25 02:20:52;;;;;;;19.50;5.93;;;;;;;5.90;100.00;100795.34;5101846;28;20032;-79
2021/05/25 02:23:17;;;;;;;20.20;5.75;;;;;;;5.89;100.00;100786.56;5104253;28;20474;-76
2021/05/25 02:25:43;;;;;;;20.88;5.85;;;;;;;5.89;100.00;100790.94;5093795;28;20074;-75
2021/05/25 02:28:10;;;;;;;19.00;5.70;;;;;;;5.91;100.00;100792.75;5104555;28;20106;-70
2021/05/25 02:30:37;;;;;;;18.13;5.22;;;;;;;5.94;100.00;100794.53;5103005;28;20026;-72
2021/05/25 02:33:06;;;;;;;19.50;6.03;;;;;;;5.99;100.00;100799.94;5103831;28;20028;-78
2021/05/25 02:35:32;;;;;;;20.17;5.70;;;;;;;6.01;100.00;100799.09;5103172;28;20042;-73
2021/05/25 02:37:58;;;;;;;20.45;5.32;;;;;;;6.03;100.00;100797.41;5103309;28;20042;-71
2021/05/25 02:40:25;;;;;;;18.88;5.45;;;;;;;6.04;100.00;100796.56;5103209;28;20024;-70
2021/05/25 02:42:51;;;;;;;17.90;5.28;;;;;;;6.08;100.00;100792.25;5102199;28;20103;-75
2021/05/25 02:45:16;;;;;;;18.25;5.22;;;;;;;6.10;100.00;100787.91;5105013;28;20467;-74
2021/05/25 02:47:42;;;;;;;19.63;5.38;;;;;;;6.16;100.00;100793.31;5100608;28;20030;-71
2021/05/25 02:50:11;;;;;;;18.58;5.13;;;;;;;6.23;100.00;100803.09;5104296;28;20046;-80
2021/05/25 02:52:38;;;;;;;17.08;4.85;;;;;;;6.18;100.00;100795.97;5102493;28;20038;-65
2021/05/25 02:55:06;;;;;;;18.42;4.88;;;;;;;6.21;100.00;100806.53;5102444;28;20562;-70
2021/05/25 02:57:32;;;;;;;17.70;4.70;;;;;;;6.22;100.00;100797.81;5102944;28;20061;-77
2021/05/25 02:59:57;;;;;;;18.48;5.05;;;;;;;6.25;100.00;100803.13;5102693;28;20031;-67
2021/05/25 03:02:22;;;;;;;17.77;5.03;;;;;;;6.21;100.00;100802.16;5104159;28;20139;-74
2021/05/25 03:04:48;;;;;;;18.13;5.00;;;;;;;6.28;100.00;100808.44;5100791;28;20034;-79
2021/05/25 03:07:13;;;;;;;18.58;5.25;;;;;;;6.24;100.00;100801.34;5097151;28;20030;-77
2021/05/25 03:09:41;;;;;;;19.00;4.88;;;;;;;6.27;100.00;100811.91;5104162;28;20064;-74
2021/05/25 03:12:07;;;;;;;17.98;5.10;;;;;;;6.31;100.00;100808.50;5102121;28;20020;-74
2021/05/25 03:14:35;;;;;;;18.83;4.95;;;;;;;6.38;100.00;100814.78;5103469;28;20528;-76
2021/05/25 03:17:01;;;;;;;18.60;5.13;;;;;;;6.38;100.00;100809.53;5103218;28;20020;-78
2021/05/25 03:19:26;;;;;;;18.45;5.40;;;;;;;6.39;100.00;100813.91;5102289;28;20467;-77
2021/05/25 03:21:54;;;;;;;18.35;5.20;;;;;;;6.36;100.00;100809.47;5104671;28;20136;-77
2021/05/25 03:24:21;;;;;;;17.98;5.20;;;;;;;6.31;100.00;100813.75;5101098;28;20107;-72
2021/05/25 03:26:46;;;;;;;19.67;5.47;;;;;;;6.37;100.00;100813.88;5104254;28;20047;-77
2021/05/25 03:29:15;;;;;;;18.25;5.78;;;;;;;6.27;100.00;100818.03;5100105;28;20046;-80
2021/05/25 03:31:40;;;;;;;18.40;5.97;;;;;;;6.29;100.00;100810.19;5104042;28;20098;-76
2021/05/25 03:34:06;;;;;;;18.60;6.00;;;;;;;6.21;100.00;100802.16;5102084;28;20170;-69
2021/05/25 03:36:32;;;;;;;19.85;5.90;;;;;;;6.18;100.00;100815.22;5103035;28;20024;-80
2021/05/25 03:38:57;;;;;;;19.40;6.00;;;;;;;6.13;100.00;100819.50;5103332;28;20088;-76
2021/05/25 03:41:22;;;;;;;19.98;5.80;;;;;;;6.14;100.00;100821.25;5101515;28;20554;-77
2021/05/25 03:43:48;;;;;;;20.30;6.50;;;;;;;6.07;100.00;100824.59;5104326;28;20077;-74
2021/05/25 03:46:13;;;;;;;19.90;6.25;;;;;;;6.08;100.00;100815.88;5101264;28;20034;-73
2021/05/25 03:48:39;;;;;;;20.05;6.28;;;;;;;6.11;100.00;100824.69;5103733;28;20031;-77
2021/05/25 03:51:04;;;;;;;20.17;6.22;;;;;;;6.13;100.00;100831.72;5102486;28;20059;-75
2021/05/25 03:53:31;;;;;;;19.63;6.75;;;;;;;6.13;100.00;100832.63;5102757;28;20413;-78
2021/05/25 03:58:49;;;;;;;21.63;7.03;;;;;;;6.14;100.00;100830.88;5103532;28;20048;-76
2021/05/25 04:01:22;;;;;;;20.55;6.80;;;;;;;6.13;100.00;100824.75;5101234;28;20424;-72
2021/05/25 04:03:55;;;;;;;20.90;7.32;;;;;;;6.11;100.00;100826.44;5097689;28;20111;-75
2021/05/25 04:06:23;;;;;;;19.80;7.68;;;;;;;6.12;100.00;100833.47;5097923;28;20116;-78
2021/05/25 04:08:49;;;;;;;21.90;7.53;;;;;;;6.20;100.00;100831.88;5104336;28;20478;-80
2021/05/25 04:11:17;;;;;;;21.85;7.70;;;;;;;6.34;100.00;100833.94;5095596;28;20032;-72
2021/05/25 04:13:44;;;;;;;21.42;7.40;;;;;;;6.38;100.00;100826.16;5103870;28;20030;-78
2021/05/25 04:16:12;;;;;;;20.27;6.95;;;;;;;6.47;100.00;100828.09;5104861;28;20024;-76
2021/05/25 04:18:38;;;;;;;20.77;7.82;;;;;;;6.56;100.00;100828.28;5107690;28;20036;-65
2021/05/25 04:21:04;;;;;;;21.58;7.78;;;;;;;6.66;100.00;100826.72;5105757;28;20466;-80
2021/05/25 04:23:30;;;;;;;21.08;7.57;;;;;;;6.71;100.00;100830.31;5104280;28;20035;-64
2021/05/25 04:25:55;;;;;;;22.40;8.20;;;;;;;6.76;100.00;100833.94;5106713;28;20044;-72
2021/05/25 04:28:21;;;;;;;19.85;7.38;;;;;;;6.76;100.00;100838.31;5104429;28;20047;-74
2021/05/25 04:30:46;;;;;;;21.27;7.43;;;;;;;6.76;100.00;100841.81;5105748;28;20032;-67
2021/05/25 04:33:12;;;;;;;20.13;7.00;;;;;;;6.77;100.00;100845.31;5104458;28;20441;-68
2021/05/25 04:35:38;;;;;;;20.02;7.57;;;;;;;6.78;100.00;100852.34;5106391;28;20031;-78
2021/05/25 04:38:05;;;;;;;20.98;7.72;;;;;;;6.81;100.00;100857.66;5105524;28;20026;-77
2021/05/25 04:40:32;;;;;;;20.38;7.55;;;;;;;6.87;100.00;100842.03;5105587;28;20021;-77
2021/05/25 04:42:59;;;;;;;21.20;7.53;;;;;;;6.94;100.00;100851.78;5106194;28;20028;-72
2021/05/25 04:45:24;;;;;;;19.92;7.78;;;;;;;6.97;100.00;100850.97;5104574;28;20099;-75
2021/05/25 04:47:50;;;;;;;21.58;8.10;;;;;;;6.95;100.00;100860.59;5107417;28;20173;-79
2021/05/25 04:50:16;;;;;;;21.30;7.95;;;;;;;6.97;100.00;100858.88;5104134;28;20046;-80
2021/05/25 04:52:42;;;;;;;21.63;8.13;;;;;;;7.01;100.00;100857.19;5106878;28;20031;-77
2021/05/25 04:55:10;;;;;;;21.70;8.32;;;;;;;7.01;100.00;100858.06;5103308;28;20024;-65
2021/05/25 04:57:36;;;;;;;21.65;7.72;;;;;;;7.05;100.00;100861.63;5105841;28;20031;-64
2021/05/25 05:00:05;;;;;;;20.98;8.23;;;;;;;7.06;100.00;100866.03;5104177;28;20383;-65
2021/05/25 05:02:30;;;;;;;20.67;7.90;;;;;;;7.06;100.00;100859.06;5105066;28;20032;-65
2021/05/25 05:04:56;;;;;;;19.95;7.60;;;;;;;7.09;100.00;100859.13;5106296;28;20016;-65
2021/05/25 05:07:21;;;;;;;20.40;8.05;;;;;;;7.17;100.00;100864.50;5103648;28;20036;-65
2021/05/25 05:09:47;;;;;;;22.55;8.23;;;;;;;7.29;100.00;100863.84;5107044;28;20474;-65
2021/05/25 05:12:12;;;;;;;20.35;7.80;;;;;;;7.37;100.00;100869.22;5103719;28;20509;-64
2021/05/25 05:14:37;;;;;;;20.52;7.78;;;;;;;7.43;100.00;100870.22;5106139;28;20487;-65
2021/05/25 05:17:03;;;;;;;21.77;8.52;;;;;;;7.50;100.00;100868.59;5105243;28;20023;-65
2021/05/25 05:19:28;;;;;;;19.83;7.60;;;;;;;7.52;100.00;100864.25;5104408;28;20411;-64
2021/05/25 05:21:54;;;;;;;20.70;8.48;;;;;;;7.53;100.00;100870.38;5106184;28;20024;-65
2021/05/25 05:24:20;;;;;;;21.73;8.57;;;;;;;7.49;100.00;100874.72;5103144;28;20107;-65
2021/05/25 05:26:45;;;;;;;21.25;8.10;;;;;;;7.58;100.00;100880.13;5105446;28;20047;-65
2021/05/25 05:29:11;;;;;;;21.35;8.70;;;;;;;7.53;100.00;100884.44;5089771;28;20027;-65
2021/05/25 05:31:36;;;;;;;22.35;8.75;;;;;;;7.46;100.00;100880.81;5088788;28;20028;-63
2021/05/25 05:34:02;;;;;;;20.90;9.20;;;;;;;7.46;100.00;100880.81;5091212;28;20035;-65
2021/05/25 05:36:27;;;;;;;21.67;8.93;;;;;;;7.51;100.00;100888.78;5088963;28;20268;-65
2021/05/25 05:38:53;;;;;;;20.95;8.55;;;;;;;7.52;100.00;100895.81;5093677;28;20076;-64
2021/05/25 05:41:18;;;;;;;22.25;9.73;;;;;;;7.46;100.00;100890.44;5087263;28;20016;-65
2021/05/25 05:43:43;;;;;;;21.70;9.77;;;;;;;7.53;100.00;100897.59;5088373;28;20020;-64
2021/05/25 05:46:09;;;;;;;21.42;9.32;;;;;;;7.53;100.00;100897.59;5092418;28;20439;-65
2021/05/25 05:48:35;;;;;;;24.40;10.68;;;;;;;7.48;100.00;100901.88;5095634;28;20048;-65
2021/05/25 05:51:01;;;;;;;23.08;11.68;;;;;;;7.52;100.00;100905.47;5092265;28;20153;-65
2021/05/25 05:53:26;;;;;;;23.90;11.15;;;;;;;7.57;100.00;100915.22;5090773;28;20035;-65
2021/05/25 05:55:52;;;;;;;24.25;12.95;;;;;;;7.61;100.00;100906.50;5092769;28;20034;-65
2021/05/25 05:58:17;;;;;;;24.58;13.25;;;;;;;7.75;100.00;100913.75;5093529;28;20850;-65
2021/05/25 06:00:44;;;;;;;23.02;12.15;;;;;;;7.81;100.00;100898.94;5091099;28;20024;-65
2021/05/25 06:03:13;;;;;;;24.15;13.20;;;;;;;7.76;100.00;100913.78;5093833;28;20527;-65
2021/05/25 06:05:39;;;;;;;23.70;12.95;;;;;;;7.59;100.00;100899.44;5090816;28;20028;-64
2021/05/25 06:08:06;;;;;;;25.17;14.07;;;;;;;7.57;100.00;100903.78;5092419;28;20024;-65
2021/05/25 06:10:33;;;;;;;25.45;12.85;;;;;;;7.57;100.00;100907.31;5092978;28;21610;-66
2021/05/25 06:12:59;;;;;;;25.42;13.88;;;;;;;7.66;100.00;100903.97;5091827;28;20131;-65
2021/05/25 06:15:25;;;;;;;23.98;11.85;;;;;;;7.67;100.00;100906.63;5092787;28;20363;-65
2021/05/25 06:17:51;;;;;;;23.30;11.70;;;;;;;7.72;100.00;100905.78;5092044;28;20043;-65
2021/05/25 06:20:17;;;;;;;22.52;11.48;;;;;;;7.73;100.00;100916.34;5091907;28;20035;-66
2021/05/25 06:22:42;;;;;;;22.42;11.35;;;;;;;7.83;100.00;100918.28;5092206;28;20020;-65
2021/05/25 06:25:09;;;;;;;21.23;10.80;;;;;;;7.98;100.00;100930.81;5091477;28;20032;-66
2021/05/25 06:27:35;;;;;;;21.67;11.02;;;;;;;8.15;100.00;100924.91;5092896;28;20491;-66
2021/05/25 06:30:00;;;;;;;22.02;11.63;;;;;;;8.43;100.00;100925.34;5091117;28;20028;-66
2021/05/25 06:32:26;;;;;;;21.70;10.80;;;;;;;8.55;96.91;100925.56;5093305;28;20123;-66
2021/05/25 06:34:51;;;;;;;20.73;9.98;;;;;;;8.61;93.30;100936.19;5092766;28;20035;-66
2021/05/25 06:37:17;;;;;;;22.85;11.40;;;;;;;8.86;96.81;100936.50;5093918;28;20016;-65
2021/05/25 06:39:43;;;;;;;22.25;11.20;;;;;;;9.01;93.86;100936.72;5091578;28;20051;-64
2021/05/25 06:42:10;;;;;;;22.98;11.85;;;;;;;9.26;92.04;100939.59;5090723;28;20034;-65
2021/05/25 06:44:35;;;;;;;21.55;11.90;;;;;;;9.49;88.36;100954.81;5091484;28;20027;-65
2021/05/25 06:47:01;;;;;;;21.60;11.40;;;;;;;9.41;86.59;100941.56;5091749;28;20032;-64
2021/05/25 06:49:27;;;;;;;23.27;12.80;;;;;;;9.36;88.29;100940.59;5091668;28;20020;-65
2021/05/25 06:51:52;;;;;;;24.08;12.80;;;;;;;9.33;87.68;100946.72;5091636;28;20032;-64
2021/05/25 06:54:17;;;;;;;23.80;11.80;;;;;;;9.31;87.73;100951.09;5092076;28;20027;-66
2021/05/25 06:56:43;;;;;;;21.75;12.35;;;;;;;9.31;87.11;100956.38;5091299;28;20035;-65
2021/05/25 06:59:08;;;;;;;22.42;11.13;;;;;;;9.40;87.80;100956.47;5091846;28;20035;-66
2021/05/25 07:01:33;;;;;;;21.20;10.55;;;;;;;9.49;87.58;100970.66;5091535;28;20028;-65
2021/05/25 07:03:59;;;;;;;20.48;9.57;;;;;;;9.64;84.91;100983.09;5091272;28;20019;-65
2021/05/25 07:06:25;;;;;;;21.27;10.60;;;;;;;9.71;85.67;100983.22;5091880;28;20466;-65
2021/05/25 07:08:51;;;;;;;21.33;10.00;;;;;;;9.76;86.23;100989.41;5091800;28;20107;-65
2021/05/25 07:11:16;;;;;;;20.30;9.82;;;;;;;9.72;85.56;100995.53;5091547;28;20157;-66
2021/05/25 07:13:41;;;;;;;20.17;9.80;;;;;;;9.55;87.58;100998.00;5091486;28;20032;-65
2021/05/25 07:16:07;;;;;;;22.48;10.80;;;;;;;9.28;92.21;100997.69;5090921;28;20032;-65
2021/05/25 07:18:32;;;;;;;21.77;11.00;;;;;;;9.08;96.07;100996.53;5091341;28;20225;-65
2021/05/25 07:20:58;;;;;;;23.25;11.15;;;;;;;9.01;99.57;100997.34;5087528;28;20028;-65
2021/05/25 07:23:23;;;;;;;24.20;12.65;;;;;;;8.98;100.00;100996.41;5091560;28;20043;-69
2021/05/25 07:25:49;;;;;;;23.50;13.63;;;;;;;9.07;100.00;100994.78;5092897;28;20044;-67
2021/05/25 07:28:15;;;;;;;23.70;12.40;;;;;;;9.24;100.00;100996.75;5084870;28;20486;-66
2021/05/25 07:30:41;;;;;;;22.90;12.55;;;;;;;9.32;100.00;100997.75;5092884;28;20090;-65
2021/05/25 07:33:06;;;;;;;25.48;12.75;;;;;;;9.46;100.00;100999.66;5087464;28;20094;-71
2021/05/25 07:35:32;;;;;;;22.13;11.73;;;;;;;9.34;97.89;101001.25;5087843;28;20463;-68
2021/05/25 07:37:57;;;;;;;24.52;12.55;;;;;;;9.47;100.00;101004.06;5090588;28;20024;-71
2021/05/25 07:40:23;;;;;;;23.33;12.52;;;;;;;9.59;95.74;101015.63;5091098;28;20020;-71
2021/05/25 07:42:48;;;;;;;22.75;12.20;;;;;;;9.60;95.58;101011.25;5092294;28;20024;-69
2021/05/25 07:45:15;;;;;;;23.48;12.40;;;;;;;9.54;93.39;101000.63;5089956;28;20024;-72
2021/05/25 07:47:41;;;;;;;24.73;13.32;;;;;;;9.64;98.03;101007.78;5092044;28;20024;-67
2021/05/25 07:50:13;;;;;;;22.92;12.88;;;;;;;9.82;94.00;101012.34;5092406;28;20536;-66
2021/05/25 07:52:44;;;;;;;22.13;12.20;;;;;;;9.94;90.83;101019.50;5097120;28;20027;-66
2021/05/25 07:55:10;;;;;;;24.13;13.68;;;;;;;9.69;100.00;101028.94;5095841;28;20478;-66
2021/05/25 07:57:35;;;;;;;27.35;16.52;;;;;;;9.20;100.00;101031.84;5094386;28;20069;-66
2021/05/25 08:00:01;;;;;;;26.98;16.98;;;;;;;8.89;100.00;101037.59;5094373;28;20028;-66
2021/05/25 08:02:26;;;;;;;27.88;17.95;;;;;;;8.63;100.00;101029.31;5096063;28;20028;-68
2021/05/25 08:04:51;;;;;;;28.73;18.55;;;;;;;8.58;100.00;101031.00;5094986;28;20067;-67
2021/05/25 08:07:17;;;;;;;29.35;17.80;;;;;;;8.69;100.00;101034.69;5103885;28;20011;-68
2021/05/25 08:09:45;;;;;;;27.48;14.75;;;;;;;8.80;100.00;101045.38;5104297;28;20028;-71
2021/05/25 08:12:11;;;;;;;23.85;12.80;;;;;;;8.80;100.00;101047.16;5107930;28;20019;-74
2021/05/25 08:14:37;;;;;;;23.00;9.20;;;;;;;8.89;100.00;101047.28;5099816;28;20493;-73
2021/05/25 08:17:05;;;;;;;21.67;8.57;;;;;;;8.68;100.00;101053.13;5107428;28;20032;-70
2021/05/25 08:19:33;;;;;;;22.75;9.75;;;;;;;8.49;100.00;101071.25;5104788;28;20043;-71
2021/05/25 08:21:59;;;;;;;23.75;10.15;;;;;;;8.26;100.00;101062.94;5106723;28;20024;-64
2021/05/25 08:24:24;;;;;;;24.58;11.02;;;;;;;8.28;100.00;101071.75;5106169;28;20026;-65
2021/05/25 08:26:49;;;;;;;27.45;12.63;;;;;;;8.34;100.00;101063.06;5105041;28;20044;-64
2021/05/25 08:29:15;;;;;;;25.90;14.10;;;;;;;8.53;100.00;101059.00;5106993;28;20038;-65
2021/05/25 08:31:40;;;;;;;25.50;13.05;;;;;;;8.60;100.00;101066.16;5104130;28;20486;-65
2021/05/25 08:34:05;;;;;;;27.17;12.60;;;;;;;8.69;100.00;101081.22;5105643;28;20089;-65
2021/05/25 08:36:32;;;;;;;27.75;13.98;;;;;;;8.73;100.00;101088.31;5104906;28;20637;-65
2021/05/25 08:38:58;;;;;;;28.27;16.38;;;;;;;8.94;100.00;101090.41;5105062;28;20089;-65
2021/05/25 08:41:23;;;;;;;30.15;18.40;;;;;;;9.19;100.00;101090.78;5105466;28;20028;-65
2021/05/25 08:43:49;;;;;;;26.55;14.40;;;;;;;9.31;100.00;101093.56;5104720;28;20028;-65
2021/05/25 08:46:15;;;;;;;29.92;17.98;;;;;;;9.51;100.00;101085.00;5106787;28;20098;-64
2021/05/25 08:48:42;;;;;;;27.70;16.05;;;;;;;9.83;100.00;101092.44;5103616;28;20103;-65
2021/05/25 08:51:09;;;;;;;28.95;16.73;;;;;;;10.03;100.00;101092.66;5099709;28;20393;-65
2021/05/25 08:53:35;;;;;;;28.67;15.00;;;;;;;10.27;100.00;101099.97;5106880;28;20035;-65
2021/05/25 08:56:01;;;;;;;25.85;12.63;;;;;;;10.19;100.00;101102.50;5104317;28;20031;-75
2021/05/25 08:58:27;;;;;;;25.63;13.35;;;;;;;10.16;100.00;101093.69;5105975;28;20444;-71
2021/05/25 09:00:56;;;;;;;26.95;13.48;;;;;;;10.24;100.00;101092.00;5104445;28;20019;-75
2021/05/25 09:03:21;;;;;;;24.77;12.88;;;;;;;10.36;100.00;101100.06;5104599;28;20028;-76
2021/05/25 09:06:06;;;;;;;25.63;12.88;;;;;;;10.41;100.00;101101.00;5105810;28;20042;-74
2021/05/25 09:08:32;;;;;;;24.45;13.00;;;;;;;10.62;100.00;101091.50;5106299;28;20031;-75
2021/05/25 09:11:04;;;;;;;25.27;13.10;;;;;;;10.63;100.00;101096.78;5104757;28;20034;-77
2021/05/25 09:13:30;;;;;;;28.00;13.20;;;;;;;10.69;100.00;101090.66;5106041;28;20145;-74
2021/05/25 09:16:01;;;;;;;24.80;12.52;;;;;;;10.49;100.00;101097.56;5105015;28;20044;-74
2021/05/25 09:18:29;;;;;;;26.57;12.20;;;;;;;10.13;100.00;101099.81;5093755;28;20081;-67
2021/05/25 09:21:06;;;;;;;32.67;15.70;;;;;;;9.64;100.00;101126.56;5091322;28;20811;-69
2021/05/25 09:23:34;;;;;;;26.92;12.75;;;;;;;8.45;100.00;101122.13;5093727;28;20451;-72
2021/05/25 09:26:06;;;;;;;25.80;11.63;;;;;;;8.34;100.00;101105.19;5092940;28;20061;-69
2021/05/25 09:28:33;;;;;;;27.35;12.75;;;;;;;8.13;100.00;101124.16;5093742;28;20032;-70
2021/05/25 09:30:59;;;;;;;29.75;14.30;;;;;;;8.12;100.00;101117.09;5091666;28;20028;-68
2021/05/25 09:33:25;;;;;;;27.80;15.23;;;;;;;8.29;100.00;101127.97;5095626;28;20024;-71
2021/05/25 09:35:52;;;;;;;28.08;14.75;;;;;;;8.28;100.00;101121.78;5093119;28;20035;-69
2021/05/25 09:38:28;;;;;;;31.02;17.30;;;;;;;8.42;100.00;101136.94;5092638;28;20379;-72
2021/05/25 09:40:59;;;;;;;30.00;17.30;;;;;;;8.59;100.00;101143.47;5090517;28;20027;-82
2021/05/25 09:43:27;;;;;;;34.45;17.50;;;;;;;8.63;100.00;101142.63;5093654;28;20024;-70
2021/05/25 09:45:56;;;;;;;31.05;16.08;;;;;;;8.96;100.00;101136.13;5093664;28;20045;-69
2021/05/25 09:48:23;;;;;;;32.60;17.60;;;;;;;9.17;100.00;101143.47;5092287;28;20039;-67
2021/05/25 09:50:49;;;;;;;31.40;17.90;;;;;;;9.28;100.00;101142.78;5092147;28;20491;-74
2021/05/25 09:53:21;;;;;;;31.67;17.50;;;;;;;9.54;100.00;101143.13;5093395;28;20028;-73
2021/05/25 09:55:53;;;;;;;30.63;16.45;;;;;;;9.59;100.00;101146.72;5092610;28;20028;-76
2021/05/25 09:58:22;;;;;;;31.75;17.38;;;;;;;9.64;100.00;101139.75;5092474;28;20073;-75
2021/05/25 10:00:47;;;;;;;30.83;16.38;;;;;;;9.50;100.00;101130.75;5092625;28;20036;-80
2021/05/25 10:03:22;;;;;;;31.30;16.70;;;;;;;9.52;100.00;101144.84;5094032;28;20489;-74
2021/05/25 10:06:00;;;;;;;30.05;17.17;;;;;;;9.83;100.00;101151.44;5091759;28;20084;-77
2021/05/25 10:08:26;;;;;;;28.98;16.48;;;;;;;10.60;100.00;101151.38;5093425;28;20046;-67
2021/05/25 10:10:54;;;;;;;28.83;15.75;;;;;;;12.16;100.00;101144.41;5091444;28;20490;-70
2021/05/25 10:13:21;;;;;;;26.48;13.07;;;;;;;13.28;88.21;101137.34;5091966;28;20483;-74
2021/05/25 10:15:48;;;;;;;22.92;10.43;;;;;;;13.93;75.38;101128.28;5093092;28;20974;-68
2021/05/25 10:18:33;;;;;;;23.92;10.30;;;;;;;15.01;78.28;101139.97;5092029;28;20155;-75
2021/05/25 10:21:01;;;;;;;23.73;6.78;;;;;;;14.57;64.89;101149.16;5091561;28;20471;-75
2021/05/25 10:23:32;;;;;;;20.88;7.20;;;;;;;13.10;72.26;101136.47;5093031;28;20492;-69
2021/05/25 10:25:59;;;;;;;20.65;7.10;;;;;;;12.37;75.88;101143.56;5091752;28;20082;-74
2021/05/25 10:28:24;;;;;;;20.13;7.32;;;;;;;13.53;72.08;101139.09;5091391;28;20067;-76
2021/05/25 10:30:51;;;;;;;20.02;6.30;;;;;;;14.29;67.66;101144.91;5092766;28;20115;-77
2021/05/25 10:33:17;;;;;;;20.08;6.32;;;;;;;15.11;63.93;101136.31;5090416;28;20059;-80
2021/05/25 10:36:00;;;;;;;19.70;5.28;;;;;;;15.18;60.65;101141.59;5092920;28;20475;-80
2021/05/25 10:38:52;;;;;;;19.23;5.20;;;;;;;13.62;64.70;101139.94;5091341;28;20060;-66
2021/05/25 10:41:35;;;;;;;21.48;6.03;;;;;;;13.75;70.11;101131.03;5090938;28;20046;-66
2021/05/25 10:44:01;;;;;;;16.30;3.97;;;;;;;14.16;59.00;101113.13;5089733;28;20077;-66
2021/05/25 10:46:27;;;;;;;17.38;4.10;;;;;;;14.83;55.86;101141.00;5092280;28;20036;-66
2021/05/25 10:54:30;;;;;;;14.55;3.20;;;;;;;12.59;61.22;101154.19;5089236;28;20025;-66
2021/05/25 10:56:57;;;;;;;15.40;3.38;;;;;;;11.79;65.64;101184.84;5091800;28;20111;-65
2021/05/25 10:59:23;;;;;;;14.95;3.50;;;;;;;11.73;66.48;101162.75;5090876;28;20036;-66
2021/05/25 11:01:57;;;;;;;12.05;3.10;;;;;;;11.95;64.74;101166.41;5089631;28;20019;-65
2021/05/25 11:04:24;;;;;;;11.00;2.70;;;;;;;12.28;62.58;101180.66;5088067;28;20114;-66
2021/05/25 11:06:50;;;;;;;12.43;2.83;;;;;;;12.51;61.83;101178.06;5093662;28;20490;-66
2021/05/25 11:09:27;;;;;;;7.20;2.50;;;;;;;13.05;58.82;101178.09;5092271;28;20470;-66
2021/05/25 11:12:08;;;;;;;8.52;2.53;;;;;;;12.49;58.50;101190.41;5091649;28;20028;-66
2021/05/25 11:14:34;;;;;;;10.13;2.70;;;;;;;11.98;58.53;101199.06;5091483;28;20131;-66
2021/05/25 11:17:29;;;;;;;9.63;2.60;;;;;;;11.94;58.97;101185.81;5091654;28;20225;-66
2021/05/25 11:20:11;;;;;;;11.93;2.80;;;;;;;11.77;62.24;101167.19;5092836;28;20044;-65
2021/05/25 11:22:38;;;;;;;14.77;3.50;;;;;;;11.99;62.33;101176.13;5092283;28;20047;-66